Grove Hall, Massachusetts
Current Conditions -  °F | °C
As of 3:54 PM on Friday 28 Nov 2014 (Local Time) from KBOS Reporting Station
Broken Clouds Broken Clouds  
Wind Chill: 23°   Ceiling: 4900
Heat Index: 33°   Visibility: 10mi
Dew Point: 18°   Wind: 15mph
Humidity: 54%   Direction: 310°NW
Pressure: 30.1"   Gusts: NA
Location:  42.3078°N, 71.0835°W
Report Text: KBOS 282054Z 31013KT 10SM BKN049 01/M08 A3010 RMK AO2 SLP190 T00061078 53012
Loading
Personal Weather Stations






























Interactive Weather Map New forecast layout! Learn more

10-Day Weather Forecast

Advertisements
Track Severe Weather on mobile